createdAt,value
2019-01-17T00:01:49.897Z,3.80
2019-01-17T00:04:25.824Z,3.80
2019-01-17T00:06:58.903Z,3.80
2019-01-17T00:09:31.608Z,3.80
2019-01-17T00:12:01.713Z,3.80
2019-01-17T00:14:49.466Z,3.80
2019-01-17T00:17:19.534Z,3.80
2019-01-17T00:20:07.601Z,3.90
2019-01-17T00:22:46.392Z,3.80
2019-01-17T00:25:32.636Z,3.80
2019-01-17T00:28:02.736Z,3.80
2019-01-17T00:30:32.877Z,3.80
2019-01-17T00:33:02.961Z,3.80
2019-01-17T00:35:33.052Z,3.80
2019-01-17T00:38:06.067Z,3.80
2019-01-17T00:40:52.126Z,3.90
2019-01-17T00:43:38.177Z,3.80
2019-01-17T00:46:24.279Z,3.90
2019-01-17T00:48:54.347Z,3.90
2019-01-17T00:51:24.501Z,3.90
2019-01-17T00:54:09.386Z,3.80
2019-01-17T00:56:41.962Z,3.80
2019-01-17T00:59:14.467Z,3.80
2019-01-17T01:01:56.206Z,3.80
2019-01-17T01:04:31.741Z,3.70
2019-01-17T01:07:16.791Z,3.70
2019-01-17T01:10:01.928Z,3.70
2019-01-17T01:12:32.001Z,3.70
2019-01-17T01:15:04.541Z,3.70
2019-01-17T01:17:50.562Z,3.70
2019-01-17T01:20:38.622Z,3.70
2019-01-17T01:23:08.681Z,3.70
2019-01-17T01:25:38.741Z,3.70
2019-01-17T01:28:23.665Z,3.70
2019-01-17T01:30:59.728Z,3.70
2019-01-17T01:33:41.601Z,3.70
2019-01-17T01:36:23.545Z,3.70
2019-01-17T01:38:53.606Z,3.70
2019-01-17T01:41:32.313Z,3.70
2019-01-17T01:44:18.582Z,3.80
2019-01-17T01:46:48.748Z,3.80
2019-01-17T01:49:33.485Z,3.70
2019-01-17T01:52:03.577Z,3.70
2019-01-17T01:54:32.047Z,3.60
2019-01-17T01:57:00.576Z,3.70
2019-01-17T01:59:29.061Z,3.70
2019-01-17T02:01:57.581Z,3.70
2019-01-17T02:04:26.072Z,3.70
2019-01-17T02:06:54.565Z,3.70
2019-01-17T02:09:23.101Z,3.70
2019-01-17T02:11:51.731Z,3.70
2019-01-17T02:14:20.236Z,3.70
2019-01-17T02:16:48.716Z,3.60
2019-01-17T02:19:17.245Z,3.60
2019-01-17T02:21:45.764Z,3.60
2019-01-17T02:24:14.381Z,3.50
2019-01-17T02:26:42.980Z,3.50
2019-01-17T02:29:11.498Z,3.40
2019-01-17T02:31:40.067Z,3.40
2019-01-17T02:34:08.742Z,3.30
2019-01-17T02:36:37.228Z,3.30
2019-01-17T02:39:07.225Z,3.30
2019-01-17T02:41:35.732Z,3.20
2019-01-17T02:44:04.247Z,3.20
2019-01-17T02:46:32.748Z,3.20
2019-01-17T02:49:01.278Z,3.20
2019-01-17T02:51:29.932Z,3.10
2019-01-17T02:53:58.434Z,3.10
2019-01-17T02:56:26.943Z,3.10
2019-01-17T02:58:55.436Z,3.10
2019-01-17T03:01:23.991Z,3.10
2019-01-17T03:03:52.457Z,3.10
2019-01-17T03:06:20.983Z,3.10
2019-01-17T03:08:49.525Z,3.10
2019-01-17T03:11:18.039Z,3.00
2019-01-17T03:13:46.520Z,3.00
2019-01-17T03:16:15.053Z,3.00
2019-01-17T03:18:43.605Z,2.90
2019-01-17T03:21:12.101Z,2.90
2019-01-17T03:23:40.597Z,2.90
2019-01-17T03:26:09.196Z,3.00
2019-01-17T03:28:37.676Z,2.90
2019-01-17T03:31:06.196Z,3.00
2019-01-17T03:33:34.671Z,2.90
2019-01-17T03:36:03.183Z,3.00
2019-01-17T03:38:31.678Z,2.90
2019-01-17T03:41:00.195Z,2.90
2019-01-17T03:43:28.679Z,3.00
2019-01-17T03:45:57.195Z,2.90
2019-01-17T03:48:25.777Z,2.90
2019-01-17T03:50:54.281Z,3.00
2019-01-17T03:53:22.938Z,2.90
2019-01-17T03:55:51.447Z,2.80
2019-01-17T03:58:19.950Z,2.80
2019-01-17T04:00:48.627Z,2.90
2019-01-17T04:03:17.146Z,2.90
2019-01-17T04:05:45.624Z,2.90
2019-01-17T04:08:14.226Z,2.90
2019-01-17T04:10:42.727Z,2.90
2019-01-17T04:13:11.293Z,2.80
2019-01-17T04:15:39.782Z,2.90
2019-01-17T04:18:08.348Z,2.80
2019-01-17T04:20:36.838Z,2.80
2019-01-17T04:23:05.358Z,2.90
2019-01-17T04:25:33.979Z,2.90
2019-01-17T04:28:02.481Z,2.90
2019-01-17T04:30:30.981Z,2.90
2019-01-17T04:32:59.500Z,2.90
2019-01-17T04:35:27.982Z,2.90
2019-01-17T04:37:56.472Z,2.90
2019-01-17T04:40:25.010Z,2.90
2019-01-17T04:42:53.527Z,2.90
2019-01-17T04:45:22.057Z,2.90
2019-01-17T04:47:50.553Z,3.00
2019-01-17T04:50:19.135Z,3.00
2019-01-17T04:52:47.616Z,3.00
2019-01-17T04:55:16.145Z,3.00
2019-01-17T04:57:44.619Z,3.00
2019-01-17T05:00:15.852Z,3.10
2019-01-17T05:02:44.358Z,3.10
2019-01-17T05:05:12.868Z,3.10
2019-01-17T05:07:41.351Z,3.10
2019-01-17T05:10:12.207Z,3.20
2019-01-17T05:12:40.755Z,3.10
2019-01-17T05:15:10.157Z,3.20
2019-01-17T05:17:38.763Z,3.30
2019-01-17T05:20:10.402Z,3.30
2019-01-17T05:22:38.895Z,3.20
2019-01-17T05:25:12.524Z,3.20
2019-01-17T05:27:38.505Z,3.20
2019-01-17T05:30:13.097Z,3.30
2019-01-17T05:32:41.620Z,3.30
2019-01-17T05:35:10.241Z,3.30
2019-01-17T05:37:38.721Z,3.30
2019-01-17T05:40:15.515Z,3.30
2019-01-17T05:42:44.006Z,3.40
2019-01-17T05:45:12.555Z,3.40
2019-01-17T05:47:41.100Z,3.40
2019-01-17T05:50:15.222Z,3.40
2019-01-17T05:52:43.728Z,3.40
2019-01-17T05:55:12.219Z,3.40
2019-01-17T05:57:40.724Z,3.30
2019-01-17T06:00:19.971Z,3.30
2019-01-17T06:02:48.547Z,3.20
2019-01-17T06:05:17.342Z,3.20
2019-01-17T06:07:45.845Z,3.20
2019-01-17T06:10:14.363Z,3.20
2019-01-17T06:12:42.880Z,3.20
2019-01-17T06:15:13.881Z,3.10
2019-01-17T06:17:42.440Z,3.10
2019-01-17T06:20:13.571Z,3.10
2019-01-17T06:22:42.100Z,3.10
2019-01-17T06:25:10.595Z,3.10
2019-01-17T06:27:39.185Z,3.10
2019-01-17T06:30:13.531Z,3.20
2019-01-17T06:32:42.057Z,3.10
2019-01-17T06:35:10.976Z,3.10
2019-01-17T06:37:39.577Z,3.20
2019-01-17T06:40:17.155Z,3.20
2019-01-17T06:42:45.720Z,3.10
2019-01-17T06:45:14.252Z,3.10
2019-01-17T06:47:42.766Z,3.20
2019-01-17T06:50:11.268Z,3.20
2019-01-17T06:52:39.857Z,3.20
2019-01-17T06:55:08.645Z,3.30
2019-01-17T06:57:37.162Z,3.40
2019-01-17T07:00:14.717Z,3.40
2019-01-17T07:02:43.197Z,3.50
2019-01-17T07:05:12.836Z,3.50
2019-01-17T07:07:41.326Z,3.40
2019-01-17T07:10:12.456Z,3.40
2019-01-17T07:12:40.945Z,3.30
2019-01-17T07:15:09.564Z,3.30
2019-01-17T07:17:38.051Z,3.30
2019-01-17T07:20:09.567Z,3.40
2019-01-17T07:22:38.060Z,3.30
2019-01-17T07:25:08.257Z,3.30
2019-01-17T07:27:36.743Z,3.30
2019-01-17T07:30:11.440Z,3.30
2019-01-17T07:32:39.960Z,3.40
2019-01-17T07:35:09.281Z,3.40
2019-01-17T07:37:37.791Z,3.40
2019-01-17T07:40:07.976Z,3.30
2019-01-17T07:42:36.576Z,3.30
2019-01-17T07:45:08.157Z,3.50
2019-01-17T07:47:36.682Z,3.40
2019-01-17T07:50:08.070Z,3.40
2019-01-17T07:52:36.580Z,3.40
2019-01-17T07:55:07.370Z,3.40
2019-01-17T07:57:35.884Z,3.40
2019-01-17T08:00:07.491Z,3.60
2019-01-17T08:02:36.172Z,3.70
2019-01-17T08:05:05.457Z,3.70
2019-01-17T08:07:34.026Z,3.80
2019-01-17T08:10:02.507Z,3.90
2019-01-17T08:12:31.036Z,3.90
2019-01-17T08:14:59.547Z,3.90
2019-01-17T08:17:28.052Z,3.80
2019-01-17T08:19:56.601Z,3.80
2019-01-17T08:22:25.121Z,3.80
2019-01-17T08:24:53.655Z,3.80
2019-01-17T08:27:22.137Z,3.90
2019-01-17T08:29:50.765Z,3.90
2019-01-17T08:32:19.241Z,4.00
2019-01-17T08:34:47.802Z,4.00
2019-01-17T08:37:16.397Z,4.00
2019-01-17T08:39:44.921Z,4.10
2019-01-17T08:42:13.425Z,4.10
2019-01-17T08:44:41.972Z,4.00
2019-01-17T08:47:10.447Z,4.00
2019-01-17T08:49:38.962Z,4.00
2019-01-17T08:52:07.468Z,3.90
2019-01-17T08:54:36.137Z,3.90
2019-01-17T08:57:04.630Z,3.90
2019-01-17T08:59:33.170Z,4.00
2019-01-17T09:02:01.825Z,4.10
2019-01-17T09:04:30.325Z,4.10
2019-01-17T09:06:58.805Z,4.20
2019-01-17T09:09:27.340Z,4.20
2019-01-17T09:11:55.838Z,4.30
2019-01-17T09:14:24.351Z,4.50
2019-01-17T09:16:52.837Z,4.50
2019-01-17T09:19:21.373Z,4.50
2019-01-17T09:21:49.901Z,4.60
2019-01-17T09:24:18.433Z,4.60
2019-01-17T09:26:46.922Z,4.60
2019-01-17T09:29:15.413Z,4.60
2019-01-17T09:31:43.936Z,4.60
2019-01-17T09:34:12.437Z,4.70
2019-01-17T09:36:41.000Z,4.70
2019-01-17T09:39:09.556Z,4.70
2019-01-17T09:41:38.055Z,4.60
2019-01-17T09:44:06.561Z,4.60
2019-01-17T09:46:35.207Z,4.60
2019-01-17T09:49:03.707Z,4.70
2019-01-17T09:51:32.226Z,4.70
2019-01-17T09:54:00.831Z,4.60
2019-01-17T09:56:29.458Z,4.60
2019-01-17T09:58:58.042Z,4.50
2019-01-17T10:01:26.587Z,4.50
2019-01-17T10:03:55.087Z,4.60
2019-01-17T10:06:23.606Z,4.70
2019-01-17T10:08:52.111Z,4.90
2019-01-17T10:11:20.646Z,5.10
2019-01-17T10:13:49.145Z,5.20
2019-01-17T10:16:20.865Z,5.20
2019-01-17T10:19:04.630Z,5.20
2019-01-17T10:21:58.827Z,5.30
2019-01-17T10:24:30.471Z,5.70
2019-01-17T10:27:07.981Z,6.10
2019-01-17T10:29:58.498Z,6.20
2019-01-17T10:32:48.011Z,6.10
2019-01-17T10:35:31.747Z,6.10
2019-01-17T10:38:06.386Z,6.40
2019-01-17T10:40:38.046Z,6.60
2019-01-17T10:43:38.431Z,6.80
2019-01-17T10:46:26.391Z,7.10
2019-01-17T10:49:03.987Z,7.20
2019-01-17T10:51:50.526Z,7.00
2019-01-17T10:54:28.122Z,6.80
2019-01-17T10:57:11.892Z,6.60
2019-01-17T10:59:46.342Z,6.50
2019-01-17T11:02:20.906Z,6.40
2019-01-17T11:04:55.491Z,6.30
2019-01-17T11:07:45.058Z,6.20
2019-01-17T11:10:34.605Z,6.10
2019-01-17T11:13:23.633Z,5.90
2019-01-17T11:16:04.206Z,5.80
2019-01-17T11:18:50.716Z,5.80
2019-01-17T11:21:47.798Z,5.60
2019-01-17T11:24:25.370Z,5.50
2019-01-17T11:27:05.822Z,5.40
2019-01-17T11:29:39.927Z,5.40
2019-01-17T11:32:26.402Z,5.40
2019-01-17T11:35:00.845Z,5.40
2019-01-17T11:37:47.481Z,5.40
2019-01-17T11:40:24.972Z,5.40
2019-01-17T11:43:12.797Z,5.50
2019-01-17T11:46:05.567Z,5.50
2019-01-17T11:48:49.086Z,5.40
2019-01-17T11:51:38.595Z,5.40
2019-01-17T11:54:34.262Z,5.30
2019-01-17T11:57:11.746Z,5.30
2019-01-17T11:59:45.895Z,5.40
2019-01-17T12:02:38.985Z,5.30
2019-01-17T12:05:02.980Z,5.30
2019-01-17T12:07:31.492Z,5.20
2019-01-17T12:09:59.981Z,5.20
2019-01-17T12:12:28.501Z,5.20
2019-01-17T12:14:58.281Z,5.20
2019-01-17T12:17:26.925Z,5.10
2019-01-17T12:19:55.410Z,5.10
2019-01-17T12:22:24.745Z,5.20
2019-01-17T12:24:53.459Z,5.10
2019-01-17T12:27:22.002Z,5.00
2019-01-17T12:29:50.491Z,5.00
2019-01-17T12:32:19.023Z,4.80
2019-01-17T12:34:47.524Z,4.70
2019-01-17T12:37:16.156Z,4.70
2019-01-17T12:39:44.618Z,4.60
2019-01-17T12:42:13.235Z,4.60
2019-01-17T12:44:41.753Z,4.60
2019-01-17T12:47:10.273Z,4.50
2019-01-17T12:49:38.916Z,4.50
2019-01-17T12:52:07.406Z,4.50
2019-01-17T12:54:35.921Z,4.40
2019-01-17T12:57:04.419Z,4.40
2019-01-17T12:59:32.950Z,4.30
2019-01-17T13:02:01.508Z,4.20
2019-01-17T13:04:30.047Z,4.30
2019-01-17T13:06:58.563Z,4.10
2019-01-17T13:09:27.166Z,4.10
2019-01-17T13:11:55.657Z,4.10
2019-01-17T13:14:24.334Z,4.10
2019-01-17T13:16:52.836Z,4.10
2019-01-17T13:19:21.351Z,4.10
2019-01-17T13:21:49.842Z,4.10
2019-01-17T13:24:18.397Z,4.00
2019-01-17T13:26:46.881Z,4.00
2019-01-17T13:29:15.378Z,3.90
2019-01-17T13:31:43.950Z,3.80
2019-01-17T13:34:12.474Z,3.70
2019-01-17T13:36:40.971Z,3.70
2019-01-17T13:39:09.481Z,3.70
2019-01-17T13:41:38.062Z,3.70
2019-01-17T13:44:06.594Z,3.70
2019-01-17T13:46:35.204Z,3.70
2019-01-17T13:49:03.706Z,3.60
2019-01-17T13:51:32.248Z,3.60
2019-01-17T13:54:00.747Z,3.50
2019-01-17T13:56:33.703Z,3.40
2019-01-17T13:58:59.516Z,3.40
2019-01-17T14:01:28.031Z,3.30
2019-01-17T14:03:56.597Z,3.30
2019-01-17T14:06:25.151Z,4.50
2019-01-17T14:08:53.643Z,3.20
2019-01-17T14:11:22.166Z,3.10
2019-01-17T14:13:50.662Z,3.10
2019-01-17T14:16:19.197Z,3.00
2019-01-17T14:18:47.687Z,3.00
2019-01-17T14:21:16.205Z,2.90
2019-01-17T14:23:44.960Z,2.90
2019-01-17T14:26:13.443Z,2.90
2019-01-17T14:28:41.957Z,2.90
2019-01-17T14:31:10.603Z,2.90
2019-01-17T14:33:39.138Z,2.90
2019-01-17T14:36:07.653Z,2.90
2019-01-17T14:38:36.252Z,2.90
2019-01-17T14:41:04.752Z,2.90
2019-01-17T14:43:33.276Z,2.90
2019-01-17T14:46:01.768Z,2.90
2019-01-17T14:48:30.326Z,2.90
2019-01-17T14:50:58.830Z,2.90
2019-01-17T14:53:27.371Z,2.90
2019-01-17T14:55:55.962Z,2.90
2019-01-17T14:58:24.515Z,2.80
2019-01-17T15:00:52.981Z,2.80
2019-01-17T15:03:21.643Z,2.70
2019-01-17T15:05:50.119Z,2.70
2019-01-17T15:08:18.666Z,2.70
2019-01-17T15:10:47.190Z,2.70
2019-01-17T15:13:15.725Z,2.60
2019-01-17T15:15:44.202Z,2.40
2019-01-17T15:18:12.736Z,2.40
2019-01-17T15:20:41.221Z,2.40
2019-01-17T15:23:09.706Z,2.40
2019-01-17T15:25:38.296Z,2.40
2019-01-17T15:28:06.807Z,2.40
2019-01-17T15:30:35.346Z,2.40
2019-01-17T15:33:04.419Z,2.40
2019-01-17T15:35:33.011Z,2.40
2019-01-17T15:38:01.517Z,2.40
2019-01-17T15:40:30.440Z,2.40
2019-01-17T15:42:58.916Z,2.40
2019-01-17T15:45:27.460Z,2.40
2019-01-17T15:47:56.002Z,2.40
2019-01-17T15:50:24.613Z,2.40
2019-01-17T15:52:53.225Z,2.40
2019-01-17T15:55:21.811Z,2.40
2019-01-17T15:57:50.379Z,2.40
2019-01-17T16:00:25.043Z,2.30
2019-01-17T16:02:53.537Z,2.30
2019-01-17T16:05:22.143Z,2.30
2019-01-17T16:07:50.637Z,2.20
2019-01-17T16:10:19.180Z,2.10
2019-01-17T16:12:47.657Z,2.20
2019-01-17T16:15:18.207Z,2.20
2019-01-17T16:17:46.701Z,2.30
2019-01-17T16:20:16.765Z,2.20
2019-01-17T16:22:45.292Z,2.20
2019-01-17T16:25:14.980Z,2.30
2019-01-17T16:27:43.576Z,2.20
2019-01-17T16:30:14.823Z,2.30
2019-01-17T16:32:43.364Z,2.20
2019-01-17T16:35:12.035Z,2.20
2019-01-17T16:37:40.559Z,2.20
2019-01-17T16:40:10.952Z,2.20
2019-01-17T16:42:39.476Z,2.20
2019-01-17T16:45:13.442Z,2.30
2019-01-17T16:47:41.972Z,2.20
2019-01-17T16:50:15.495Z,2.20
2019-01-17T16:52:44.030Z,2.10
2019-01-17T16:55:12.910Z,2.00
2019-01-17T16:57:41.432Z,2.00
2019-01-17T17:00:13.061Z,2.00
2019-01-17T17:02:41.595Z,2.00
2019-01-17T17:05:10.172Z,1.90
2019-01-17T17:07:38.808Z,1.80
2019-01-17T17:10:10.345Z,1.90
2019-01-17T17:12:38.835Z,1.80
2019-01-17T17:15:08.943Z,1.80
2019-01-17T17:17:37.470Z,5.10
2019-01-17T17:20:20.531Z,1.80
2019-01-17T17:22:49.025Z,1.80
2019-01-17T17:25:17.553Z,1.80
2019-01-17T17:27:46.197Z,1.80
2019-01-17T17:30:20.032Z,1.80
2019-01-17T17:32:48.545Z,1.80
2019-01-17T17:35:17.106Z,1.70
2019-01-17T17:37:45.636Z,1.80
2019-01-17T17:40:22.295Z,1.80
2019-01-17T17:42:50.790Z,1.80
2019-01-17T17:45:19.363Z,1.80
2019-01-17T17:47:47.897Z,1.70
2019-01-17T17:50:18.500Z,1.80
2019-01-17T17:52:47.227Z,1.80
2019-01-17T17:55:17.001Z,1.80
2019-01-17T17:57:45.497Z,1.80
2019-01-17T18:00:17.967Z,1.80
2019-01-17T18:02:46.945Z,1.80
2019-01-17T18:05:15.471Z,1.80
2019-01-17T18:07:43.960Z,1.80
2019-01-17T18:10:14.897Z,1.80
2019-01-17T18:12:43.399Z,1.80
2019-01-17T18:15:15.131Z,1.80
2019-01-17T18:17:43.661Z,1.80
2019-01-17T18:20:14.600Z,1.80
2019-01-17T18:22:43.113Z,1.80
2019-01-17T18:25:11.979Z,1.80
2019-01-17T18:27:40.569Z,1.80
2019-01-17T18:30:15.259Z,1.80
2019-01-17T18:32:43.868Z,2.00
2019-01-17T18:35:12.402Z,2.00
2019-01-17T18:37:40.976Z,2.00
2019-01-17T18:40:12.072Z,2.00
2019-01-17T18:42:40.606Z,4.50
2019-01-17T18:45:14.785Z,1.90
2019-01-17T18:47:43.406Z,1.90
2019-01-17T18:50:14.582Z,1.90
2019-01-17T18:52:43.151Z,1.90
2019-01-17T18:55:11.662Z,1.90
2019-01-17T18:57:40.220Z,1.90
2019-01-17T19:00:24.611Z,1.90
2019-01-17T19:02:53.147Z,1.90
2019-01-17T19:05:21.635Z,1.80
2019-01-17T19:07:50.206Z,1.80
2019-01-17T19:10:19.772Z,1.80
2019-01-17T19:12:48.366Z,1.80
2019-01-17T19:15:22.770Z,1.80
2019-01-17T19:17:51.310Z,1.90
2019-01-17T19:20:20.806Z,1.90
2019-01-17T19:22:49.419Z,1.90
2019-01-17T19:25:18.306Z,1.60
2019-01-17T19:27:46.801Z,1.80
2019-01-17T19:30:20.343Z,1.80
2019-01-17T19:32:48.848Z,1.80
2019-01-17T19:35:17.375Z,1.80
2019-01-17T19:37:45.874Z,1.90
2019-01-17T19:40:16.221Z,1.90
2019-01-17T19:42:45.675Z,1.80
2019-01-17T19:45:15.288Z,1.80
2019-01-17T19:47:43.794Z,1.80
2019-01-17T19:50:15.714Z,1.80
2019-01-17T19:52:44.276Z,1.80
2019-01-17T19:55:12.811Z,1.80
2019-01-17T19:57:41.401Z,1.80
2019-01-17T20:00:17.946Z,1.80
2019-01-17T20:02:46.509Z,1.70
2019-01-17T20:05:17.151Z,1.70
2019-01-17T20:07:45.648Z,1.70
2019-01-17T20:10:17.048Z,1.70
2019-01-17T20:12:45.541Z,1.70
2019-01-17T20:15:14.016Z,1.70
2019-01-17T20:17:42.554Z,1.70
2019-01-17T20:20:13.552Z,1.60
2019-01-17T20:22:42.078Z,1.60
2019-01-17T20:25:10.696Z,1.50
2019-01-17T20:27:39.276Z,1.60
2019-01-17T20:30:13.820Z,1.60
2019-01-17T20:32:42.431Z,1.50
2019-01-17T20:35:10.941Z,1.50
2019-01-17T20:37:39.497Z,0.90
2019-01-17T20:40:13.974Z,1.60
2019-01-17T20:42:42.563Z,1.60
2019-01-17T20:45:12.470Z,1.60
2019-01-17T20:47:40.982Z,1.50
2019-01-17T20:50:20.745Z,1.50
2019-01-17T20:52:49.333Z,1.50
2019-01-17T20:55:17.840Z,1.50
2019-01-17T20:57:47.869Z,1.50
2019-01-17T21:00:24.911Z,1.50
2019-01-17T21:02:53.430Z,1.50
2019-01-17T21:05:22.124Z,1.50
2019-01-17T21:07:50.771Z,1.40
2019-01-17T21:10:19.567Z,1.50
2019-01-17T21:12:48.090Z,1.50
2019-01-17T21:15:16.587Z,1.50
2019-01-17T21:17:45.109Z,1.40
2019-01-17T21:20:14.215Z,1.40
2019-01-17T21:22:42.719Z,1.40
2019-01-17T21:25:16.528Z,1.40
2019-01-17T21:27:45.032Z,1.40
2019-01-17T21:30:16.394Z,1.40
2019-01-17T21:32:44.912Z,1.40
2019-01-17T21:35:13.420Z,1.40
2019-01-17T21:37:41.901Z,1.40
2019-01-17T21:40:15.539Z,1.40
2019-01-17T21:42:44.036Z,4.20
2019-01-17T21:45:14.451Z,1.40
2019-01-17T21:47:42.945Z,1.30
2019-01-17T21:50:17.172Z,1.30
2019-01-17T21:52:45.657Z,1.40
2019-01-17T21:55:14.202Z,1.50
2019-01-17T21:57:42.785Z,1.40
2019-01-17T22:00:14.655Z,1.40
2019-01-17T22:02:43.165Z,1.40
2019-01-17T22:05:11.740Z,1.40
2019-01-17T22:07:40.302Z,1.40
2019-01-17T22:10:11.355Z,1.30
2019-01-17T22:12:39.871Z,1.40
2019-01-17T22:15:11.825Z,1.40
2019-01-17T22:17:40.330Z,1.30
2019-01-17T22:20:10.923Z,1.30
2019-01-17T22:22:39.471Z,1.30
2019-01-17T22:25:15.826Z,1.30
2019-01-17T22:27:44.383Z,1.30
2019-01-17T22:30:15.873Z,1.30
2019-01-17T22:32:44.430Z,1.30
2019-01-17T22:35:12.946Z,1.30
2019-01-17T22:37:41.475Z,1.30
2019-01-17T22:40:14.791Z,1.30
2019-01-17T22:42:43.325Z,1.30
2019-01-17T22:45:19.953Z,1.30
2019-01-17T22:47:48.474Z,1.20
2019-01-17T22:50:18.571Z,1.20
2019-01-17T22:52:47.792Z,1.20
2019-01-17T22:55:16.296Z,1.10
2019-01-17T22:57:44.824Z,1.00
2019-01-17T23:00:50.421Z,1.10
2019-01-17T23:03:20.856Z,1.00
2019-01-17T23:05:49.365Z,1.00
2019-01-17T23:08:17.947Z,0.90
2019-01-17T23:10:46.440Z,0.90
2019-01-17T23:13:15.057Z,0.90
2019-01-17T23:15:43.611Z,0.90
2019-01-17T23:18:12.137Z,0.90
2019-01-17T23:20:40.646Z,1.00
2019-01-17T23:23:09.144Z,1.00
2019-01-17T23:25:37.655Z,1.00
2019-01-17T23:28:06.186Z,1.00
2019-01-17T23:30:34.761Z,1.00
2019-01-17T23:33:03.310Z,1.00
2019-01-17T23:35:31.854Z,1.00
2019-01-17T23:38:00.416Z,1.10
2019-01-17T23:40:28.906Z,1.10
2019-01-17T23:42:57.396Z,1.10
2019-01-17T23:45:25.922Z,1.10
2019-01-17T23:47:54.431Z,1.10
2019-01-17T23:50:23.032Z,1.20
2019-01-17T23:52:51.517Z,1.20
2019-01-17T23:55:20.045Z,1.10
2019-01-17T23:57:48.563Z,1.20
